SQ234 NZAA-YBBN
Flight info
| Callsign | SQ234 |
|---|---|
| Flight time | N/A |
| Altitude | 31000 |
| Route | BATO4Q UPLAR A464 DUBUD Q39 SAVER G329 UGTUG UGTU2X |
| Aircraft | A359/H-V/N |
Departure
| Time | 2026-05-07 05:58 |
|---|---|
| Airport | Auckland International Airport (NZAA) |
Arrival
| Time | N/A |
|---|---|
| Airport | Brisbane International Airport (YBBN) |
| Time | Latitude | Longitude | Altitude | Speed | Heading |
|---|---|---|---|---|---|
| 2026-05-07 05:25 | -37.00862 | 174.78220 | 33 ft | 0 kts | 16° |
| 2026-05-07 05:41 | -37.00861 | 174.78220 | 33 ft | 0 kts | 16° |
| 2026-05-07 05:42 | -37.00862 | 174.78220 | 33 ft | 0 kts | 16° |
| 2026-05-07 05:42 | -37.00861 | 174.78220 | 33 ft | 0 kts | 16° |
| 2026-05-07 05:47 | -37.00882 | 174.78212 | 33 ft | 3 kts | 15° |
| 2026-05-07 05:47 | -37.00908 | 174.78204 | 32 ft | 3 kts | 7° |
| 2026-05-07 05:47 | -37.00938 | 174.78204 | 31 ft | 4 kts | 349° |
| 2026-05-07 05:47 | -37.00965 | 174.78220 | 31 ft | 4 kts | 324° |
| 2026-05-07 05:48 | -37.00987 | 174.78242 | 30 ft | 3 kts | 316° |
| 2026-05-07 05:48 | -37.01000 | 174.78265 | 30 ft | 3 kts | 287° |
| 2026-05-07 05:48 | -37.01000 | 174.78282 | 30 ft | 1 kts | 252° |
| 2026-05-07 05:49 | -37.01001 | 174.78282 | 30 ft | 0 kts | 252° |
| 2026-05-07 05:51 | -37.01001 | 174.78278 | 30 ft | 1 kts | 253° |
| 2026-05-07 05:51 | -37.01006 | 174.78256 | 30 ft | 3 kts | 253° |
| 2026-05-07 05:51 | -37.01011 | 174.78239 | 30 ft | 0 kts | 254° |
| 2026-05-07 05:53 | -37.01022 | 174.78203 | 30 ft | 10 kts | 249° |
| 2026-05-07 05:53 | -37.01057 | 174.78084 | 32 ft | 15 kts | 250° |
| 2026-05-07 05:53 | -37.01095 | 174.77948 | 32 ft | 17 kts | 251° |
| 2026-05-07 05:54 | -37.01140 | 174.77799 | 31 ft | 12 kts | 246° |
| 2026-05-07 05:54 | -37.01141 | 174.77792 | 31 ft | 0 kts | 245° |
| 2026-05-07 05:54 | -37.01168 | 174.77722 | 30 ft | 14 kts | 244° |
| 2026-05-07 05:54 | -37.01250 | 174.77637 | 30 ft | 18 kts | 215° |
| 2026-05-07 05:55 | -37.01330 | 174.77467 | 30 ft | 27 kts | 250° |
| 2026-05-07 05:55 | -37.01396 | 174.77229 | 27 ft | 30 kts | 250° |
| 2026-05-07 05:55 | -37.01549 | 174.77097 | 27 ft | 25 kts | 169° |
| 2026-05-07 05:55 | -37.01594 | 174.77159 | 27 ft | 5 kts | 102° |
| 2026-05-07 05:56 | -37.01594 | 174.77214 | 27 ft | 5 kts | 78° |
| 2026-05-07 05:56 | -37.01591 | 174.77225 | 27 ft | 0 kts | 71° |
| 2026-05-07 05:57 | -37.01584 | 174.77251 | 27 ft | 23 kts | 70° |
| 2026-05-07 05:57 | -37.01425 | 174.77812 | 31 ft | 110 kts | 71° |
| 2026-05-07 05:57 | -37.01107 | 174.79018 | 63 ft | 175 kts | 68° |
| 2026-05-07 05:58 | -37.00678 | 174.80545 | 573 ft | 200 kts | 67° |
| 2026-05-07 05:58 | -37.00189 | 174.82304 | 820 ft | 232 kts | 67° |
| 2026-05-07 05:58 | -36.99665 | 174.84212 | 1035 ft | 219 kts | 67° |
| 2026-05-07 05:58 | -36.99207 | 174.85912 | 1275 ft | 201 kts | 66° |
| 2026-05-07 05:59 | -36.98743 | 174.87589 | 1538 ft | 212 kts | 65° |
| 2026-05-07 05:59 | -36.98246 | 174.89363 | 1975 ft | 221 kts | 65° |
| 2026-05-07 05:59 | -36.97729 | 174.91203 | 2471 ft | 225 kts | 65° |
| 2026-05-07 05:59 | -36.97210 | 174.93056 | 2967 ft | 229 kts | 65° |
| 2026-05-07 06:00 | -36.96681 | 174.94945 | 3468 ft | 233 kts | 66° |
| 2026-05-07 06:00 | -36.96142 | 174.96872 | 3969 ft | 237 kts | 66° |
| 2026-05-07 06:00 | -36.95590 | 174.98819 | 4467 ft | 239 kts | 62° |
| 2026-05-07 06:00 | -36.94639 | 175.00432 | 4945 ft | 231 kts | 31° |
| 2026-05-07 06:01 | -36.93171 | 175.01137 | 5434 ft | 229 kts | 2° |
| 2026-05-07 06:01 | -36.91621 | 175.00813 | 5924 ft | 231 kts | 334° |
| 2026-05-07 06:01 | -36.90315 | 174.99600 | 6433 ft | 236 kts | 319° |
| 2026-05-07 06:01 | -36.89085 | 174.98231 | 6922 ft | 238 kts | 319° |
| 2026-05-07 06:02 | -36.87844 | 174.96867 | 7406 ft | 240 kts | 320° |
| 2026-05-07 06:02 | -36.86588 | 174.95489 | 7899 ft | 242 kts | 320° |
| 2026-05-07 06:02 | -36.85327 | 174.94107 | 8390 ft | 244 kts | 320° |
| 2026-05-07 06:02 | -36.84092 | 174.92625 | 8873 ft | 246 kts | 306° |
| 2026-05-07 06:03 | -36.83544 | 174.90622 | 9350 ft | 253 kts | 274° |
| 2026-05-07 06:03 | -36.83675 | 174.88414 | 9847 ft | 259 kts | 268° |
| 2026-05-07 06:03 | -36.83837 | 174.86177 | 10338 ft | 263 kts | 269° |
| 2026-05-07 06:03 | -36.83994 | 174.83852 | 10834 ft | 278 kts | 269° |
| 2026-05-07 06:04 | -36.84158 | 174.81363 | 11329 ft | 294 kts | 268° |
| 2026-05-07 06:04 | -36.84324 | 174.78780 | 11812 ft | 308 kts | 268° |
| 2026-05-07 06:04 | -36.84498 | 174.76062 | 12301 ft | 323 kts | 268° |
| 2026-05-07 06:04 | -36.84680 | 174.73222 | 12785 ft | 336 kts | 268° |
| 2026-05-07 06:05 | -36.84869 | 174.70250 | 13273 ft | 349 kts | 268° |
| 2026-05-07 06:05 | -36.85060 | 174.67209 | 13755 ft | 357 kts | 267° |
| 2026-05-07 06:05 | -36.85253 | 174.64130 | 14241 ft | 360 kts | 267° |
| 2026-05-07 06:05 | -36.85447 | 174.61017 | 14736 ft | 362 kts | 267° |
| 2026-05-07 06:06 | -36.85641 | 174.57872 | 15232 ft | 363 kts | 267° |
| 2026-05-07 06:06 | -36.85834 | 174.54741 | 15720 ft | 364 kts | 267° |
| 2026-05-07 06:06 | -36.86028 | 174.51593 | 16211 ft | 365 kts | 267° |
| 2026-05-07 06:06 | -36.86221 | 174.48434 | 16696 ft | 367 kts | 267° |
| 2026-05-07 06:07 | -36.86412 | 174.45279 | 17181 ft | 368 kts | 267° |
| 2026-05-07 06:07 | -36.86607 | 174.42073 | 17673 ft | 369 kts | 267° |
| 2026-05-07 06:07 | -36.86798 | 174.38892 | 18161 ft | 371 kts | 267° |
| 2026-05-07 06:07 | -36.86991 | 174.35658 | 18651 ft | 374 kts | 267° |
| 2026-05-07 06:08 | -36.87184 | 174.32436 | 19137 ft | 377 kts | 268° |
| 2026-05-07 06:08 | -36.87380 | 174.29141 | 19628 ft | 381 kts | 268° |
| 2026-05-07 06:08 | -36.87573 | 174.25868 | 20112 ft | 384 kts | 268° |
| 2026-05-07 06:08 | -36.87769 | 174.22519 | 20602 ft | 388 kts | 268° |
| 2026-05-07 06:09 | -36.87966 | 174.19150 | 21094 ft | 392 kts | 268° |
| 2026-05-07 06:09 | -36.88164 | 174.15759 | 21580 ft | 396 kts | 268° |
| 2026-05-07 06:09 | -36.88364 | 174.12303 | 22071 ft | 400 kts | 268° |
| 2026-05-07 06:09 | -36.88560 | 174.08881 | 22557 ft | 404 kts | 268° |
| 2026-05-07 06:10 | -36.88763 | 174.05333 | 23051 ft | 408 kts | 268° |
| 2026-05-07 06:10 | -36.88816 | 174.01814 | 23531 ft | 406 kts | 277° |
| 2026-05-07 06:10 | -36.88337 | 173.98518 | 24017 ft | 375 kts | 288° |
| 2026-05-07 06:10 | -36.87432 | 173.95607 | 24509 ft | 344 kts | 298° |
| 2026-05-07 06:11 | -36.86362 | 173.93094 | 25010 ft | 319 kts | 300° |
| 2026-05-07 06:11 | -36.85297 | 173.90686 | 25524 ft | 318 kts | 300° |
| 2026-05-07 06:11 | -36.84215 | 173.88249 | 26040 ft | 320 kts | 300° |
| 2026-05-07 06:11 | -36.83146 | 173.85832 | 26552 ft | 322 kts | 300° |
| 2026-05-07 06:12 | -36.82069 | 173.83392 | 27064 ft | 323 kts | 300° |
| 2026-05-07 06:12 | -36.80982 | 173.80928 | 27582 ft | 324 kts | 300° |
| 2026-05-07 06:12 | -36.79905 | 173.78482 | 28095 ft | 324 kts | 300° |
| 2026-05-07 06:12 | -36.78820 | 173.76021 | 28614 ft | 324 kts | 300° |
| 2026-05-07 06:13 | -36.77739 | 173.73567 | 29127 ft | 323 kts | 300° |
| 2026-05-07 06:13 | -36.76669 | 173.71140 | 29640 ft | 322 kts | 300° |
| 2026-05-07 06:13 | -36.75599 | 173.68713 | 30171 ft | 319 kts | 300° |
| 2026-05-07 06:13 | -36.74537 | 173.66307 | 30701 ft | 316 kts | 300° |
| 2026-05-07 06:14 | -36.73472 | 173.63899 | 31081 ft | 318 kts | 300° |
| 2026-05-07 06:14 | -36.72392 | 173.61458 | 31146 ft | 329 kts | 300° |
| 2026-05-07 06:14 | -36.71267 | 173.58916 | 31153 ft | 341 kts | 300° |
| 2026-05-07 06:14 | -36.70104 | 173.56290 | 31153 ft | 353 kts | 300° |
| 2026-05-07 06:15 | -36.68911 | 173.53592 | 31151 ft | 359 kts | 300° |
| 2026-05-07 06:15 | -36.66495 | 173.48141 | 31151 ft | 361 kts | 300° |
| 2026-05-07 06:16 | -36.64058 | 173.42659 | 31147 ft | 361 kts | 300° |
| 2026-05-07 06:16 | -36.61624 | 173.37205 | 31151 ft | 361 kts | 300° |
| 2026-05-07 06:17 | -36.59189 | 173.31743 | 31142 ft | 361 kts | 300° |
| 2026-05-07 06:17 | -36.56759 | 173.26283 | 31150 ft | 362 kts | 300° |
| 2026-05-07 06:18 | -36.54332 | 173.20850 | 31148 ft | 361 kts | 300° |
| 2026-05-07 06:18 | -36.51893 | 173.15405 | 31146 ft | 361 kts | 300° |
| 2026-05-07 06:19 | -36.49449 | 173.09963 | 31141 ft | 362 kts | 300° |
| 2026-05-07 06:19 | -36.47037 | 173.04597 | 31142 ft | 348 kts | 300° |
| 2026-05-07 06:20 | -36.44680 | 172.99367 | 31143 ft | 346 kts | 300° |
| 2026-05-07 06:20 | -36.42326 | 172.94150 | 31148 ft | 347 kts | 300° |
| 2026-05-07 06:21 | -36.39968 | 172.88933 | 31144 ft | 347 kts | 300° |
| 2026-05-07 06:21 | -36.37606 | 172.83716 | 31145 ft | 348 kts | 300° |
| 2026-05-07 06:22 | -36.35301 | 172.78628 | 31138 ft | 332 kts | 300° |
| 2026-05-07 06:22 | -36.31910 | 172.71164 | 31130 ft | 331 kts | 300° |
| 2026-05-07 06:23 | -36.29655 | 172.66208 | 31135 ft | 332 kts | 300° |
| 2026-05-07 06:23 | -36.27387 | 172.61232 | 31135 ft | 331 kts | 300° |
| 2026-05-07 06:24 | -36.25127 | 172.56279 | 31133 ft | 331 kts | 300° |
| 2026-05-07 06:24 | -36.22877 | 172.51356 | 31134 ft | 331 kts | 300° |
| 2026-05-07 06:25 | -36.20607 | 172.46399 | 31125 ft | 330 kts | 300° |
| 2026-05-07 06:25 | -36.18350 | 172.41473 | 31121 ft | 330 kts | 300° |
| 2026-05-07 06:26 | -36.16082 | 172.36533 | 31123 ft | 330 kts | 300° |
| 2026-05-07 06:26 | -36.15485 | 172.35231 | 31124 ft | 330 kts | 300° |
| 2026-05-07 06:27 | -36.13725 | 172.31392 | 31123 ft | 329 kts | 301° |
| 2026-05-07 06:27 | -36.11458 | 172.26450 | 31122 ft | 330 kts | 300° |
| 2026-05-07 06:28 | -36.09199 | 172.21541 | 31121 ft | 330 kts | 300° |
| 2026-05-07 06:28 | -36.06937 | 172.16638 | 31113 ft | 329 kts | 301° |
| 2026-05-07 06:29 | -36.04684 | 172.11766 | 31117 ft | 329 kts | 300° |
| 2026-05-07 06:29 | -36.02402 | 172.06834 | 31114 ft | 328 kts | 301° |
| 2026-05-07 06:30 | -36.00142 | 172.01965 | 31109 ft | 328 kts | 300° |
| 2026-05-07 06:30 | -35.97880 | 171.97092 | 31112 ft | 328 kts | 300° |
| 2026-05-07 06:31 | -35.95607 | 171.92206 | 31113 ft | 329 kts | 300° |
| 2026-05-07 06:31 | -35.93331 | 171.87320 | 31107 ft | 328 kts | 300° |
| 2026-05-07 06:32 | -35.91067 | 171.82463 | 31105 ft | 327 kts | 300° |
| 2026-05-07 06:32 | -35.88788 | 171.77608 | 31104 ft | 328 kts | 301° |
| 2026-05-07 06:33 | -35.86506 | 171.72777 | 31103 ft | 326 kts | 301° |
| 2026-05-07 06:33 | -35.84229 | 171.67938 | 31108 ft | 327 kts | 301° |
| 2026-05-07 06:34 | -35.81956 | 171.63103 | 31108 ft | 327 kts | 301° |
| 2026-05-07 06:34 | -35.79681 | 171.58263 | 31101 ft | 326 kts | 301° |
| 2026-05-07 06:35 | -35.77408 | 171.53430 | 31098 ft | 326 kts | 301° |
| 2026-05-07 06:35 | -35.75132 | 171.48598 | 31095 ft | 326 kts | 301° |
| 2026-05-07 06:36 | -35.72867 | 171.43797 | 31096 ft | 326 kts | 301° |
| 2026-05-07 06:36 | -35.70597 | 171.38991 | 31094 ft | 326 kts | 301° |
| 2026-05-07 06:37 | -35.68317 | 171.34172 | 31091 ft | 325 kts | 301° |
| 2026-05-07 06:37 | -35.66050 | 171.29359 | 31094 ft | 326 kts | 301° |
| 2026-05-07 06:38 | -35.63784 | 171.24570 | 31090 ft | 325 kts | 301° |
| 2026-05-07 06:38 | -35.61517 | 171.19795 | 31091 ft | 325 kts | 301° |
| 2026-05-07 06:39 | -35.59238 | 171.15004 | 31090 ft | 325 kts | 301° |
| 2026-05-07 06:39 | -35.57340 | 171.11021 | 31088 ft | 324 kts | 301° |
| 2026-05-07 06:40 | -35.55021 | 171.05226 | 31088 ft | 325 kts | 296° |
| 2026-05-07 06:40 | -35.53161 | 171.00172 | 31086 ft | 325 kts | 296° |
| 2026-05-07 06:41 | -35.51305 | 170.95142 | 31082 ft | 325 kts | 296° |
| 2026-05-07 06:41 | -35.49439 | 170.90086 | 31077 ft | 325 kts | 296° |
| 2026-05-07 06:42 | -35.47588 | 170.85080 | 31079 ft | 325 kts | 296° |
| 2026-05-07 06:42 | -35.45721 | 170.80043 | 31077 ft | 324 kts | 296° |
| 2026-05-07 06:43 | -35.43851 | 170.75001 | 31074 ft | 325 kts | 296° |
| 2026-05-07 06:43 | -35.41986 | 170.69980 | 31076 ft | 324 kts | 296° |
| 2026-05-07 06:44 | -35.40112 | 170.64946 | 31079 ft | 324 kts | 296° |
| 2026-05-07 06:44 | -35.38254 | 170.59956 | 31075 ft | 323 kts | 296° |
| 2026-05-07 06:45 | -35.36387 | 170.54958 | 31071 ft | 323 kts | 296° |
| 2026-05-07 06:45 | -35.34515 | 170.49948 | 31072 ft | 323 kts | 296° |
| 2026-05-07 06:46 | -35.32650 | 170.44972 | 31073 ft | 323 kts | 296° |
| 2026-05-07 06:46 | -35.30777 | 170.39973 | 31072 ft | 323 kts | 296° |
| 2026-05-07 06:47 | -35.28910 | 170.35007 | 31069 ft | 323 kts | 296° |
| 2026-05-07 06:47 | -35.27037 | 170.30002 | 31069 ft | 323 kts | 296° |
| 2026-05-07 06:48 | -35.26417 | 170.28349 | 31070 ft | 323 kts | 296° |